createdAt,value
2023-11-30T00:04:59.003Z,4.00
2023-11-30T00:15:07.113Z,4.10
2023-11-30T00:24:58.855Z,3.40
2023-11-30T00:34:59.010Z,3.70
2023-11-30T00:44:58.644Z,4.50
2023-11-30T00:54:58.528Z,4.50
2023-11-30T01:04:58.410Z,4.30
2023-11-30T01:14:58.350Z,4.70
2023-11-30T01:24:58.246Z,5.00
2023-11-30T01:34:58.127Z,5.50
2023-11-30T01:44:58.069Z,5.90
2023-11-30T01:54:57.946Z,6.20
2023-11-30T02:04:57.858Z,6.40
2023-11-30T02:14:57.738Z,6.40
2023-11-30T02:24:57.643Z,6.30
2023-11-30T02:34:57.552Z,6.10
2023-11-30T02:44:57.440Z,6.50
2023-11-30T02:54:57.364Z,6.50
2023-11-30T03:04:57.268Z,6.70
2023-11-30T03:14:57.196Z,6.40
2023-11-30T03:24:57.068Z,6.80
2023-11-30T03:34:56.969Z,7.20
2023-11-30T03:45:04.625Z,7.50
2023-11-30T03:54:56.772Z,7.70
2023-11-30T04:04:56.699Z,7.50
2023-11-30T04:14:56.613Z,7.90
2023-11-30T04:24:56.516Z,7.70
2023-11-30T04:34:56.418Z,8.00
2023-11-30T04:44:56.347Z,8.80
2023-11-30T04:54:56.544Z,7.70
2023-11-30T05:04:56.290Z,7.50
2023-11-30T05:14:56.100Z,7.90
2023-11-30T05:24:55.960Z,8.20
2023-11-30T05:34:55.893Z,8.10
2023-11-30T05:44:55.863Z,8.50
2023-11-30T05:54:55.672Z,8.90
2023-11-30T06:04:55.654Z,8.20
2023-11-30T06:15:01.920Z,8.90
2023-11-30T06:24:55.328Z,10.50
2023-11-30T06:34:55.233Z,9.80
2023-11-30T06:44:56.524Z,10.60
2023-11-30T06:54:56.623Z,9.50
2023-11-30T07:04:55.097Z,9.40
2023-11-30T07:14:54.994Z,10.30
2023-11-30T07:24:55.544Z,10.00
2023-11-30T07:34:54.850Z,10.20
2023-11-30T07:44:54.699Z,11.30
2023-11-30T07:54:54.587Z,11.30
2023-11-30T08:04:54.488Z,9.70
2023-11-30T08:14:54.541Z,11.50
2023-11-30T08:24:54.478Z,11.40
2023-11-30T08:34:54.413Z,11.90
2023-11-30T08:44:54.056Z,11.90
2023-11-30T08:54:54.003Z,13.00
2023-11-30T09:04:53.899Z,13.10
2023-11-30T09:14:53.808Z,12.50
2023-11-30T09:24:53.702Z,11.10
2023-11-30T09:34:53.512Z,11.40
2023-11-30T09:44:53.489Z,13.10
2023-11-30T09:54:53.357Z,11.60
2023-11-30T10:04:53.288Z,12.60
2023-11-30T10:14:53.191Z,11.90
2023-11-30T10:25:00.532Z,10.60
2023-11-30T10:34:53.116Z,12.10
2023-11-30T10:44:52.901Z,10.20
2023-11-30T10:54:52.752Z,8.70
2023-11-30T11:04:52.655Z,9.90
2023-11-30T11:14:52.562Z,8.30
2023-11-30T11:24:52.556Z,8.10
2023-11-30T11:34:52.382Z,7.40
2023-11-30T11:44:52.380Z,5.90
2023-11-30T11:54:52.292Z,7.10
2023-11-30T12:04:52.703Z,6.60
2023-11-30T12:14:52.002Z,5.60
2023-11-30T12:24:51.915Z,5.10
2023-11-30T12:34:51.796Z,5.60
2023-11-30T12:44:51.743Z,5.70
2023-11-30T12:55:00.484Z,5.40
2023-11-30T13:04:51.542Z,6.90
2023-11-30T13:14:51.411Z,7.30
2023-11-30T13:24:51.236Z,6.70
2023-11-30T13:34:51.124Z,5.60
2023-11-30T13:44:58.852Z,6.40
2023-11-30T13:54:50.957Z,5.60
2023-11-30T14:04:50.908Z,5.20
2023-11-30T14:14:50.754Z,6.30
2023-11-30T14:24:50.640Z,8.20
2023-11-30T14:34:50.540Z,8.30
2023-11-30T14:44:50.462Z,8.40
2023-11-30T14:54:50.366Z,9.50
2023-11-30T15:04:50.306Z,10.30
2023-11-30T15:14:51.129Z,10.60
2023-11-30T15:24:50.124Z,11.70
2023-11-30T15:34:49.995Z,15.10
2023-11-30T15:44:49.908Z,17.80
2023-11-30T15:54:49.848Z,17.60
2023-11-30T16:04:49.782Z,18.10
2023-11-30T16:14:49.572Z,26.10
2023-11-30T16:24:49.568Z,17.80
2023-11-30T16:34:49.398Z,18.20
2023-11-30T16:44:49.275Z,16.10
2023-11-30T16:54:49.223Z,17.00
2023-11-30T17:04:49.238Z,20.10
2023-11-30T17:14:48.989Z,18.90
2023-11-30T17:24:49.115Z,23.80
2023-11-30T17:34:49.055Z,24.20
2023-11-30T17:44:48.689Z,22.40
2023-11-30T17:54:48.641Z,21.80
2023-11-30T18:04:48.657Z,22.80
2023-11-30T18:14:48.489Z,20.70
2023-11-30T18:24:48.363Z,21.30
2023-11-30T18:34:48.297Z,24.50
2023-11-30T18:44:48.137Z,26.50
2023-11-30T18:54:48.441Z,32.40
2023-11-30T19:04:54.763Z,30.50
2023-11-30T19:14:47.996Z,27.40
2023-11-30T19:24:57.057Z,26.40
2023-11-30T19:34:54.221Z,26.00
2023-11-30T19:44:55.570Z,27.50
2023-11-30T19:54:47.588Z,27.60
2023-11-30T20:04:47.571Z,25.20
2023-11-30T20:14:47.442Z,25.80
2023-11-30T20:24:48.122Z,24.90
2023-11-30T20:34:47.194Z,31.80
2023-11-30T20:44:47.004Z,26.70
2023-11-30T20:54:47.107Z,26.10
2023-11-30T21:04:46.883Z,31.60
2023-11-30T21:14:46.789Z,27.00
2023-11-30T21:24:46.808Z,25.20
2023-11-30T21:34:46.671Z,24.00
2023-11-30T21:44:46.998Z,30.50
2023-11-30T21:54:47.525Z,32.70
2023-11-30T22:04:46.465Z,40.40
2023-11-30T22:14:46.220Z,35.40
2023-11-30T22:24:46.196Z,35.90
2023-11-30T22:34:46.059Z,34.40
2023-11-30T22:44:45.886Z,33.00
2023-11-30T22:54:45.882Z,30.50
2023-11-30T23:04:45.881Z,35.40
2023-11-30T23:14:45.669Z,36.40
2023-11-30T23:24:45.537Z,38.10
2023-11-30T23:34:45.542Z,40.60
2023-11-30T23:44:45.394Z,42.00
2023-11-30T23:54:45.321Z,40.30
